Time;durP1;ratioP1;P1;durP2;ratioP2;P2;SDS_P1;SDS_P2;PMS_P1;PMS_P2;Temp;Humidity;BMP_temperature;BMP_pressure;BME280_temperature;BME280_humidity;BME280_pressure;Samples;Min_cycle;Max_cycle;Signal;HPM_P1;HPM_P2
2022/03/09 00:01:53;;;;;;;6.67;3.27;;;;;;;11.69;68.78;100578.81;5052952;28;20128;-74
2022/03/09 00:04:23;;;;;;;7.90;2.20;;;;;;;10.90;68.90;100443.56;5050207;28;20049;-74
2022/03/09 00:06:50;;;;;;;3.67;3.33;;;;;;;11.54;69.12;100554.53;5059862;28;20041;-74
2022/03/09 00:09:16;;;;;;;7.33;2.87;;;;;;;11.54;69.22;100564.88;5045430;28;20080;-74
2022/03/09 00:11:43;;;;;;;12.20;4.47;;;;;;;11.48;69.20;100549.25;5051588;28;20079;-74
2022/03/09 00:14:10;;;;;;;14.33;4.77;;;;;;;11.70;68.66;100557.28;5035158;28;20053;-73
2022/03/09 00:16:37;;;;;;;5.57;2.40;;;;;;;11.60;68.67;100541.38;5040590;28;20103;-73
2022/03/09 00:19:08;;;;;;;7.70;2.90;;;;;;;11.61;68.94;100543.88;5050956;28;20499;-73
2022/03/09 00:21:35;;;;;;;6.20;2.30;;;;;;;11.49;69.02;100535.00;5048160;28;20086;-75
2022/03/09 00:24:03;;;;;;;5.23;2.53;;;;;;;11.52;69.11;100550.34;5050307;28;20084;-72
2022/03/09 00:26:30;;;;;;;5.57;1.70;;;;;;;11.59;68.62;100557.31;5046708;28;20536;-70
2022/03/09 00:28:57;;;;;;;10.90;3.63;;;;;;;11.59;68.83;100545.31;5042926;28;20084;-71
2022/03/09 00:31:23;;;;;;;7.13;3.03;;;;;;;11.55;68.85;100544.19;5048157;28;20057;-70
2022/03/09 00:33:51;;;;;;;9.53;2.43;;;;;;;11.48;68.58;100522.13;5046488;28;20057;-70
2022/03/09 00:36:17;;;;;;;2.63;1.97;;;;;;;11.60;68.60;100542.22;5044435;28;20077;-69
2022/03/09 00:38:44;;;;;;;16.17;3.33;;;;;;;11.33;68.69;100497.03;5043975;28;20049;-70
2022/03/09 00:41:11;;;;;;;7.47;2.23;;;;;;;11.54;68.96;100543.34;5044807;28;20128;-70
2022/03/09 00:43:38;;;;;;;3.67;1.87;;;;;;;11.39;68.96;100533.09;5040755;28;20083;-69
2022/03/09 00:46:05;;;;;;;3.73;1.97;;;;;;;11.60;68.36;100524.59;5053905;28;20081;-75
2022/03/09 00:48:36;;;;;;;11.03;2.70;;;;;;;11.51;68.58;100501.97;5053685;28;20122;-73
2022/03/09 00:51:03;;;;;;;8.80;3.03;;;;;;;11.56;68.81;100523.50;5054247;28;20053;-73
2022/03/09 00:53:30;;;;;;;12.03;3.60;;;;;;;11.52;68.76;100516.78;5053668;28;20052;-73
2022/03/09 00:55:57;;;;;;;5.40;1.90;;;;;;;10.92;68.71;100413.38;5054002;28;20484;-73
2022/03/09 00:58:24;;;;;;;3.57;2.10;;;;;;;11.60;68.70;100517.03;5053330;28;20129;-73
2022/03/09 01:00:51;;;;;;;5.10;2.67;;;;;;;11.66;68.48;100522.59;5053301;28;20053;-72
2022/03/09 01:03:18;;;;;;;5.30;2.13;;;;;;;11.59;69.03;100522.94;5054148;28;20470;-74
2022/03/09 01:05:45;;;;;;;4.53;2.80;;;;;;;11.64;68.80;100497.72;5053790;28;20056;-72
2022/03/09 01:08:12;;;;;;;2.30;1.60;;;;;;;11.62;68.91;100523.19;5053227;28;20534;-71
2022/03/09 01:10:41;;;;;;;18.00;2.97;;;;;;;10.96;69.04;100406.09;5053522;28;20078;-72
2022/03/09 01:13:07;;;;;;;4.00;1.67;;;;;;;11.31;68.75;100457.34;5035937;28;20048;-71
2022/03/09 01:15:34;;;;;;;8.83;1.77;;;;;;;11.67;68.90;100518.69;5069186;28;21455;-72
2022/03/09 01:18:01;;;;;;;6.67;2.37;;;;;;;11.65;69.16;100520.91;5059302;28;20049;-71
2022/03/09 01:20:28;;;;;;;8.30;1.53;;;;;;;11.73;68.85;100512.78;5048632;28;20115;-71
2022/03/09 01:22:55;;;;;;;8.17;2.40;;;;;;;11.60;69.46;100513.41;5044599;28;20079;-72
2022/03/09 01:25:22;;;;;;;2.80;1.90;;;;;;;11.70;69.45;100520.91;5040387;28;20133;-72
2022/03/09 01:27:49;;;;;;;6.63;2.10;;;;;;;11.85;68.80;100518.03;5046349;28;20542;-72
2022/03/09 01:30:16;;;;;;;5.93;1.67;;;;;;;11.79;69.42;100511.59;5041610;28;20048;-73
2022/03/09 01:32:43;;;;;;;3.70;1.73;;;;;;;11.92;68.64;100510.13;5046525;28;20050;-72
2022/03/09 01:35:10;;;;;;;2.27;1.30;;;;;;;12.00;68.93;100529.13;5045965;28;20048;-71
2022/03/09 01:37:38;;;;;;;5.53;1.43;;;;;;;11.80;69.95;100509.66;5039822;28;20094;-74
2022/03/09 01:40:05;;;;;;;2.17;1.10;;;;;;;11.49;70.90;100479.06;5032694;28;20052;-74
2022/03/09 01:42:32;;;;;;;6.40;2.03;;;;;;;11.62;70.89;100489.63;5040431;28;20053;-73
2022/03/09 01:45:01;;;;;;;4.90;2.20;;;;;;;11.58;70.88;100476.47;5050062;28;20468;-73
2022/03/09 01:47:28;;;;;;;2.70;1.90;;;;;;;11.71;71.09;100502.97;5040773;28;20072;-74
2022/03/09 01:49:55;;;;;;;3.77;1.53;;;;;;;11.81;70.77;100500.94;5047570;28;20354;-72
2022/03/09 01:52:23;;;;;;;5.30;1.97;;;;;;;11.81;71.07;100497.31;5045847;28;20499;-74
2022/03/09 01:54:52;;;;;;;4.03;1.70;;;;;;;11.81;71.18;100497.31;5052743;28;20079;-72
2022/03/09 01:57:20;;;;;;;6.03;0.97;;;;;;;11.88;70.82;100491.44;5029940;28;20574;-71
2022/03/09 01:59:48;;;;;;;6.23;1.33;;;;;;;12.01;70.08;100485.19;5039251;28;20087;-71
2022/03/09 02:02:16;;;;;;;5.40;2.43;;;;;;;11.98;70.51;100488.56;5046491;28;20118;-71
2022/03/09 02:04:44;;;;;;;8.13;2.03;;;;;;;12.00;70.54;100489.94;5042923;28;20048;-72
2022/03/09 02:07:11;;;;;;;3.63;1.63;;;;;;;11.90;70.47;100462.03;5051761;28;20045;-70
2022/03/09 02:09:43;;;;;;;12.57;3.40;;;;;;;12.01;70.50;100474.81;5047722;28;20092;-70
2022/03/09 02:12:15;;;;;;;1.73;1.20;;;;;;;12.06;70.73;100473.94;5044438;28;20044;-70
2022/03/09 02:14:49;;;;;;;2.53;1.47;;;;;;;10.99;73.29;100352.44;5045945;28;20045;-69
2022/03/09 02:17:19;;;;;;;10.83;10.20;;;;;;;11.44;75.30;100470.69;5041850;28;20115;-70
2022/03/09 02:19:48;;;;;;;3.93;1.63;;;;;;;11.17;76.66;100454.34;5039233;28;20486;-70
2022/03/09 02:22:32;;;;;;;1.10;1.00;;;;;;;11.05;77.72;100451.06;5030940;28;20114;-73
2022/03/09 02:25:14;;;;;;;0.73;0.70;;;;;;;10.95;78.61;100449.16;5046979;28;20123;-72
2022/03/09 02:27:43;;;;;;;1.40;0.80;;;;;;;10.91;79.18;100450.84;5046266;28;20053;-72
2022/03/09 02:30:13;;;;;;;2.47;0.67;;;;;;;10.97;79.70;100441.28;5035339;28;20060;-72
2022/03/09 02:32:49;;;;;;;0.77;0.77;;;;;;;11.03;79.97;100450.50;5049700;28;20056;-72
2022/03/09 02:35:18;;;;;;;3.57;1.50;;;;;;;11.04;80.29;100439.06;5046044;28;20088;-73
2022/03/09 02:37:46;;;;;;;3.15;2.13;;;;;;;10.90;81.44;100437.97;5046692;28;20052;-72
2022/03/09 02:40:15;;;;;;;5.70;1.97;;;;;;;10.97;81.24;100429.28;5043952;28;20095;-71
2022/03/09 02:42:42;;;;;;;4.50;4.30;;;;;;;11.14;80.70;100421.38;5050525;28;20393;-71
2022/03/09 02:45:11;;;;;;;7.60;2.20;;;;;;;11.18;80.94;100421.63;5049827;28;20530;-71
2022/03/09 02:47:42;;;;;;;12.40;1.93;;;;;;;11.21;80.81;100410.72;5049814;28;20049;-73
2022/03/09 02:50:10;;;;;;;8.47;2.00;;;;;;;11.08;81.68;100422.56;5045726;28;20049;-71
2022/03/09 02:52:39;;;;;;;8.17;2.63;;;;;;;11.20;81.61;100417.44;5050243;28;20407;-70
2022/03/09 02:55:07;;;;;;;1.33;1.13;;;;;;;11.25;81.71;100411.00;5051497;28;20466;-70
2022/03/09 02:57:34;;;;;;;9.83;2.53;;;;;;;10.45;82.68;100311.38;5052056;28;20566;-72
2022/03/09 03:00:03;;;;;;;9.90;2.20;;;;;;;11.27;82.12;100403.13;5040584;28;20053;-71
2022/03/09 03:02:30;;;;;;;15.53;2.83;;;;;;;11.34;82.15;100410.06;5054027;28;20190;-70
2022/03/09 03:04:58;;;;;;;8.87;2.60;;;;;;;10.98;82.05;100324.81;5051114;28;20053;-70
2022/03/09 03:07:25;;;;;;;5.37;1.80;;;;;;;11.18;82.46;100361.00;5041906;28;20051;-69
2022/03/09 03:09:52;;;;;;;3.60;2.00;;;;;;;11.32;82.55;100373.19;5038347;28;20056;-69
2022/03/09 03:12:19;;;;;;;6.87;1.97;;;;;;;10.83;82.54;100290.22;5052126;28;20080;-71
2022/03/09 03:14:46;;;;;;;5.90;3.63;;;;;;;11.53;82.46;100395.44;5037162;28;20080;-70
2022/03/09 03:17:13;;;;;;;2.80;1.07;;;;;;;11.38;82.89;100376.78;5048996;28;20453;-70
2022/03/09 03:19:40;;;;;;;1.87;1.07;;;;;;;10.95;83.26;100312.25;5044187;28;20076;-70
2022/03/09 03:22:07;;;;;;;4.83;1.90;;;;;;;11.30;83.69;100380.19;5054691;28;20080;-70
2022/03/09 03:24:33;;;;;;;6.03;1.70;;;;;;;11.33;83.13;100348.88;5055446;28;20457;-70
2022/03/09 03:27:00;;;;;;;7.37;2.10;;;;;;;10.97;83.89;100307.19;5048261;28;20041;-71
2022/03/09 03:29:27;;;;;;;3.93;1.37;;;;;;;11.08;83.43;100308.81;5050654;28;20078;-70
2022/03/09 03:31:57;;;;;;;7.47;1.90;;;;;;;11.03;83.89;100331.19;5053908;28;20085;-70
2022/03/09 03:34:24;;;;;;;1.48;1.13;;;;;;;11.06;83.70;100296.25;5052858;28;20052;-70
2022/03/09 03:36:51;;;;;;;10.67;2.83;;;;;;;11.25;83.18;100322.38;5055587;28;20416;-71
2022/03/09 03:39:18;;;;;;;6.60;1.80;;;;;;;11.49;83.71;100358.81;5036328;28;20080;-71
2022/03/09 03:41:45;;;;;;;6.93;1.27;;;;;;;11.07;83.78;100289.50;5036865;28;20085;-70
2022/03/09 03:44:11;;;;;;;7.10;1.63;;;;;;;11.35;83.21;100318.66;5048000;28;20048;-70
2022/03/09 03:46:40;;;;;;;4.57;1.60;;;;;;;11.62;83.43;100369.34;5053013;28;20044;-70
2022/03/09 03:49:07;;;;;;;5.03;1.23;;;;;;;11.54;83.71;100350.38;5042940;28;20504;-71
2022/03/09 03:51:33;;;;;;;4.47;1.83;;;;;;;11.65;83.70;100341.91;5027821;28;20049;-71
2022/03/09 03:54:01;;;;;;;21.77;20.00;;;;;;;11.28;83.68;100288.25;5048509;28;20099;-70
2022/03/09 03:56:28;;;;;;;24.63;22.10;;;;;;;11.63;83.76;100347.81;5045131;28;20098;-70
2022/03/09 03:58:58;;;;;;;22.73;21.38;;;;;;;11.66;84.03;100365.94;5054104;28;20049;-70
2022/03/09 04:01:25;;;;;;;24.87;23.10;;;;;;;11.53;83.37;100312.38;5069004;28;20053;-70
2022/03/09 04:03:53;;;;;;;4.80;2.03;;;;;;;11.29;83.77;100289.09;5063457;28;20030;-70
2022/03/09 04:06:23;;;;;;;4.90;2.00;;;;;;;11.65;83.93;100325.13;5053742;28;20057;-72
2022/03/09 04:08:50;;;;;;;3.53;1.50;;;;;;;11.62;84.33;100352.56;5071924;28;20045;-71
2022/03/09 04:11:17;;;;;;;3.63;2.03;;;;;;;11.59;83.73;100311.19;5068243;28;20032;-71
2022/03/09 04:13:44;;;;;;;7.17;5.13;;;;;;;11.50;83.50;100293.38;5044624;28;20049;-72
2022/03/09 04:16:11;;;;;;;3.50;1.33;;;;;;;11.68;83.81;100316.16;5069734;28;20029;-71
2022/03/09 04:18:38;;;;;;;5.57;1.30;;;;;;;11.53;84.85;100343.13;5068635;28;20053;-69
2022/03/09 04:21:05;;;;;;;36.70;34.20;;;;;;;11.61;84.45;100336.88;5067512;28;20053;-70
2022/03/09 04:23:32;;;;;;;7.80;2.10;;;;;;;11.25;83.98;100257.25;5076812;28;20061;-69
2022/03/09 04:26:06;;;;;;;5.07;2.17;;;;;;;11.88;83.59;100327.19;5064314;28;20045;-68
2022/03/09 04:28:34;;;;;;;36.65;34.03;;;;;;;11.77;84.05;100343.19;5064607;28;20040;-70
2022/03/09 04:31:01;;;;;;;37.30;34.37;;;;;;;11.83;83.78;100338.41;5071827;28;20051;-68
2022/03/09 04:33:28;;;;;;;37.20;34.70;;;;;;;11.91;83.59;100334.16;5067675;28;20045;-69
2022/03/09 04:35:57;;;;;;;37.63;34.17;;;;;;;11.90;83.84;100333.31;5051019;28;20124;-69
2022/03/09 04:38:24;;;;;;;35.97;33.50;;;;;;;11.79;84.03;100315.75;5052016;28;20489;-69
2022/03/09 04:40:51;;;;;;;31.03;28.97;;;;;;;11.56;83.83;100286.59;5050814;28;20076;-70
2022/03/09 04:43:18;;;;;;;36.67;33.77;;;;;;;12.04;83.53;100345.50;5039699;28;20053;-73
2022/03/09 04:45:45;;;;;;;37.53;35.03;;;;;;;12.02;83.57;100325.34;5041145;28;20080;-70
2022/03/09 04:48:12;;;;;;;37.90;35.20;;;;;;;11.70;83.80;100292.34;5044576;28;20091;-70
2022/03/09 04:50:39;;;;;;;6.20;2.07;;;;;;;12.06;83.64;100337.63;5050017;28;20083;-69
2022/03/09 04:53:06;;;;;;;5.47;2.27;;;;;;;12.08;83.79;100328.94;5052123;28;20044;-69
2022/03/09 04:55:33;;;;;;;34.30;32.10;;;;;;;11.89;84.40;100314.84;5045011;28;20080;-69
2022/03/09 04:57:59;;;;;;;3.70;0.93;;;;;;;11.94;84.37;100320.41;5051294;28;20045;-70
2022/03/09 05:00:26;;;;;;;3.10;0.97;;;;;;;11.96;84.30;100320.91;5046684;28;20337;-69
2022/03/09 05:02:53;;;;;;;0.97;0.87;;;;;;;11.99;84.30;100314.75;5048065;28;20060;-70
2022/03/09 05:05:20;;;;;;;3.90;0.73;;;;;;;11.74;84.21;100301.00;5047989;28;20049;-69
2022/03/09 05:07:47;;;;;;;2.17;0.80;;;;;;;11.71;84.44;100273.59;5049387;28;20127;-69
2022/03/09 05:10:14;;;;;;;20.67;19.60;;;;;;;11.98;84.84;100327.06;5051080;28;20045;-70
2022/03/09 05:12:42;;;;;;;2.93;1.03;;;;;;;12.05;84.37;100313.56;5047854;28;20059;-70
2022/03/09 05:15:09;;;;;;;1.80;1.13;;;;;;;12.18;84.10;100328.00;5023221;28;20053;-71
2022/03/09 05:17:44;;;;;;;3.23;1.57;;;;;;;11.95;83.69;100277.28;5034082;28;20084;-69
2022/03/09 05:20:12;;;;;;;2.30;1.47;;;;;;;12.40;83.30;100333.88;5043065;28;20071;-70
2022/03/09 05:22:39;;;;;;;2.43;1.13;;;;;;;12.29;83.15;100307.16;5051429;28;20049;-71
2022/03/09 05:25:06;;;;;;;1.03;1.00;;;;;;;12.29;83.55;100315.53;5047710;28;20455;-71
2022/03/09 05:27:36;;;;;;;3.42;1.20;;;;;;;11.98;83.63;100273.06;5045197;28;20087;-70
2022/03/09 05:30:04;;;;;;;1.47;0.73;;;;;;;12.04;83.15;100272.72;5046960;28;20108;-70
2022/03/09 05:32:31;;;;;;;16.43;15.30;;;;;;;11.99;83.37;100278.34;5046762;28;20099;-69
2022/03/09 05:34:58;;;;;;;15.77;14.97;;;;;;;12.21;83.16;100302.22;5052616;28;20111;-70
2022/03/09 05:37:28;;;;;;;15.50;14.50;;;;;;;12.34;83.38;100337.88;5050748;28;20446;-70
2022/03/09 05:39:55;;;;;;;16.17;15.38;;;;;;;12.28;83.28;100328.72;5051715;28;20052;-71
2022/03/09 05:42:22;;;;;;;14.97;14.13;;;;;;;12.25;83.01;100314.47;5048341;28;20059;-71
2022/03/09 05:44:49;;;;;;;15.30;14.33;;;;;;;12.41;82.91;100341.16;5050088;28;20084;-71
2022/03/09 05:47:36;;;;;;;14.70;14.00;;;;;;;12.26;82.98;100313.34;5047400;28;20071;-72
2022/03/09 05:50:03;;;;;;;14.33;13.70;;;;;;;12.33;83.29;100319.41;5042504;28;20041;-71
2022/03/09 05:52:30;;;;;;;13.63;12.97;;;;;;;12.39;83.02;100335.03;5048978;28;20076;-70
2022/03/09 05:54:58;;;;;;;13.07;12.37;;;;;;;12.04;83.09;100295.09;5047005;28;20503;-71
2022/03/09 05:57:25;;;;;;;15.20;13.80;;;;;;;12.39;83.24;100334.19;5045145;28;20076;-69
2022/03/09 05:59:52;;;;;;;15.50;13.50;;;;;;;12.43;82.91;100343.66;5043828;28;20061;-71
2022/03/09 06:02:19;;;;;;;14.43;12.73;;;;;;;12.35;82.87;100336.75;5044394;28;20562;-70
2022/03/09 06:04:47;;;;;;;12.40;11.53;;;;;;;12.16;83.27;100308.69;5040792;28;20558;-70
2022/03/09 06:07:14;;;;;;;11.40;10.40;;;;;;;12.36;83.28;100334.78;5047453;28;20053;-70
2022/03/09 06:09:41;;;;;;;11.70;11.10;;;;;;;12.18;82.97;100280.41;5045672;28;20053;-70
2022/03/09 06:12:08;;;;;;;15.37;11.47;;;;;;;12.15;82.93;100283.81;5050069;28;20102;-71
2022/03/09 06:14:35;;;;;;;11.50;10.90;;;;;;;12.43;83.10;100344.50;5046328;28;20045;-70
2022/03/09 06:17:02;;;;;;;12.20;11.20;;;;;;;12.38;83.12;100338.13;5050991;28;20152;-69
2022/03/09 06:19:30;;;;;;;12.63;11.77;;;;;;;12.35;83.14;100322.75;5045867;28;20055;-70
2022/03/09 06:21:56;;;;;;;11.13;10.53;;;;;;;12.44;83.09;100332.16;5045884;28;20072;-72
2022/03/09 06:24:23;;;;;;;12.77;11.77;;;;;;;12.41;83.33;100317.91;5046388;28;20080;-71
2022/03/09 06:26:53;;;;;;;9.15;6.00;;;;;;;12.36;83.35;100324.41;5039978;28;20049;-69
2022/03/09 06:29:21;;;;;;;13.17;12.30;;;;;;;12.20;83.14;100308.91;5049938;28;20073;-69
2022/03/09 06:31:47;;;;;;;14.53;11.50;;;;;;;12.54;82.95;100343.22;5032186;28;20050;-70
2022/03/09 06:34:15;;;;;;;11.17;10.57;;;;;;;12.47;83.19;100331.56;5057282;28;20044;-71
2022/03/09 06:36:43;;;;;;;13.57;12.63;;;;;;;12.49;83.23;100339.66;5053556;28;20080;-71
2022/03/09 06:39:12;;;;;;;11.67;10.87;;;;;;;12.24;83.25;100279.19;5054112;28;20041;-70
2022/03/09 06:41:43;;;;;;;13.10;12.07;;;;;;;12.45;83.36;100321.81;5045770;28;20464;-70
2022/03/09 06:44:12;;;;;;;10.60;10.00;;;;;;;12.41;83.14;100320.72;5055933;28;20052;-71
2022/03/09 06:46:40;;;;;;;12.30;11.13;;;;;;;12.46;82.76;100287.88;5051834;28;20041;-70
2022/03/09 06:49:07;;;;;;;2.63;1.33;;;;;;;12.37;82.96;100292.47;5055532;28;20163;-68
2022/03/09 06:51:34;;;;;;;10.47;9.80;;;;;;;12.60;82.66;100323.56;5052555;28;20049;-69
2022/03/09 06:54:01;;;;;;;18.83;10.80;;;;;;;12.73;82.69;100343.28;5044590;28;20562;-69
2022/03/09 06:56:28;;;;;;;11.97;10.83;;;;;;;12.76;82.59;100362.28;5042365;28;20084;-70
2022/03/09 06:58:55;;;;;;;13.57;12.63;;;;;;;12.76;82.53;100339.06;5052579;28;20078;-71
2022/03/09 07:01:22;;;;;;;10.70;9.97;;;;;;;12.74;82.55;100330.94;5049410;28;20045;-71
2022/03/09 07:03:49;;;;;;;11.27;10.57;;;;;;;12.41;82.62;100293.56;5037648;28;20101;-72
2022/03/09 07:06:16;;;;;;;15.20;11.33;;;;;;;12.62;82.60;100322.16;5041124;28;20099;-71
2022/03/09 07:08:43;;;;;;;11.37;10.30;;;;;;;12.65;82.23;100315.94;5039917;28;20194;-71
2022/03/09 07:11:10;;;;;;;10.93;10.17;;;;;;;12.77;82.16;100330.34;5050006;28;20095;-70
2022/03/09 07:13:36;;;;;;;10.67;10.07;;;;;;;12.89;81.93;100343.91;5048841;28;20122;-71
2022/03/09 07:16:04;;;;;;;4.00;1.30;;;;;;;12.74;82.31;100335.72;5049010;28;20045;-71
2022/03/09 07:18:31;;;;;;;6.77;1.13;;;;;;;12.80;82.22;100328.91;5052981;28;20144;-71
2022/03/09 07:20:58;;;;;;;6.97;1.70;;;;;;;12.53;81.82;100295.91;5052368;28;20080;-70
2022/03/09 07:23:25;;;;;;;4.03;1.77;;;;;;;12.88;81.89;100342.22;5051032;28;20049;-72
2022/03/09 07:25:54;;;;;;;9.30;1.73;;;;;;;12.87;81.81;100346.19;5050908;28;20057;-71
2022/03/09 07:28:21;;;;;;;16.30;1.77;;;;;;;12.65;81.59;100293.53;5039763;28;20049;-72
2022/03/09 07:30:48;;;;;;;6.17;2.27;;;;;;;12.83;81.82;100321.88;5046870;28;20076;-73
2022/03/09 07:33:15;;;;;;;12.83;3.00;;;;;;;12.91;81.95;100346.41;5054862;28;20504;-73
2022/03/09 07:35:45;;;;;;;13.33;12.30;;;;;;;12.64;81.80;100305.84;5048191;28;20098;-73
2022/03/09 07:38:14;;;;;;;13.55;12.32;;;;;;;12.96;81.82;100354.75;5051981;28;20052;-73
2022/03/09 07:40:42;;;;;;;14.43;13.33;;;;;;;13.11;81.58;100353.72;5047124;28;20096;-73
2022/03/09 07:43:09;;;;;;;10.83;10.13;;;;;;;13.03;81.87;100342.03;5053530;28;20076;-74
2022/03/09 07:45:36;;;;;;;12.83;10.40;;;;;;;12.75;81.71;100309.34;5053464;28;20127;-74
2022/03/09 07:48:04;;;;;;;11.87;10.97;;;;;;;13.22;81.73;100374.84;5048459;28;20468;-74
2022/03/09 07:50:31;;;;;;;13.37;12.13;;;;;;;12.97;81.71;100345.22;5049355;28;20495;-73
2022/03/09 07:52:58;;;;;;;12.47;11.87;;;;;;;12.81;81.65;100311.78;5046877;28;20084;-74
2022/03/09 07:55:25;;;;;;;10.80;9.83;;;;;;;13.33;81.58;100367.97;5048807;28;20096;-74
2022/03/09 07:57:56;;;;;;;10.63;9.93;;;;;;;13.11;81.27;100325.66;5053902;28;20144;-74
2022/03/09 08:00:23;;;;;;;10.93;9.83;;;;;;;13.40;81.28;100390.88;5044186;28;20084;-74
2022/03/09 08:02:49;;;;;;;10.20;9.50;;;;;;;13.32;81.32;100379.50;5039592;28;20052;-75
2022/03/09 08:05:17;;;;;;;11.60;10.40;;;;;;;13.13;81.14;100352.28;5038946;28;20049;-75
2022/03/09 08:07:45;;;;;;;12.30;11.30;;;;;;;12.73;80.84;100273.22;5047315;28;20045;-74
2022/03/09 08:10:13;;;;;;;12.60;11.90;;;;;;;13.30;80.84;100377.03;5044089;28;20124;-75
2022/03/09 08:12:40;;;;;;;11.70;10.70;;;;;;;13.42;80.71;100374.56;5049096;28;20057;-77
2022/03/09 08:15:09;;;;;;;12.13;9.93;;;;;;;12.80;80.61;100300.88;5050059;28;20056;-76
2022/03/09 08:17:36;;;;;;;2.80;1.87;;;;;;;13.35;80.40;100390.94;5050419;28;20049;-76
2022/03/09 08:20:04;;;;;;;4.73;1.13;;;;;;;13.41;80.51;100386.94;5054267;28;20045;-76
2022/03/09 08:22:31;;;;;;;6.00;5.53;;;;;;;13.44;79.98;100414.38;5052103;28;20077;-77
2022/03/09 08:24:57;;;;;;;3.70;1.80;;;;;;;13.39;79.78;100382.75;5048111;28;20574;-76
2022/03/09 08:27:24;;;;;;;13.40;12.30;;;;;;;13.15;80.08;100361.19;5048015;28;20081;-75
2022/03/09 08:29:51;;;;;;;14.03;12.60;;;;;;;13.51;79.87;100383.97;5052656;28;20077;-76
2022/03/09 08:32:19;;;;;;;17.40;13.40;;;;;;;13.30;79.61;100343.38;5052941;28;20573;-76
2022/03/09 08:34:47;;;;;;;3.97;2.10;;;;;;;12.90;79.52;100272.72;5048691;28;20045;-76
2022/03/09 08:37:14;;;;;;;6.23;2.20;;;;;;;13.19;79.60;100330.59;5053469;28;20045;-76
2022/03/09 08:39:48;;;;;;;13.77;9.50;;;;;;;13.43;79.57;100383.81;5052002;28;20554;-76
2022/03/09 08:42:18;;;;;;;10.30;9.33;;;;;;;13.52;79.44;100402.47;5048255;28;20096;-75
2022/03/09 08:44:45;;;;;;;12.30;9.00;;;;;;;13.67;79.34;100408.97;5051761;28;20084;-76
2022/03/09 08:47:12;;;;;;;9.93;9.00;;;;;;;13.36;79.17;100336.50;5050975;28;20510;-76
2022/03/09 08:49:40;;;;;;;9.77;8.87;;;;;;;13.66;79.24;100404.50;5051310;28;20049;-76
2022/03/09 08:52:10;;;;;;;9.83;8.80;;;;;;;13.73;78.94;100390.91;5050761;28;20049;-77
2022/03/09 08:54:38;;;;;;;10.43;9.55;;;;;;;13.79;78.72;100411.31;5050521;28;20056;-76
2022/03/09 08:57:05;;;;;;;10.20;9.67;;;;;;;13.37;78.71;100340.19;5052422;28;20049;-76
2022/03/09 08:59:35;;;;;;;10.43;9.33;;;;;;;13.72;78.70;100380.84;5052570;28;20056;-77
2022/03/09 09:02:24;;;;;;;10.93;9.83;;;;;;;13.37;78.98;100349.41;5048708;28;20500;-77
2022/03/09 09:04:51;;;;;;;10.27;9.17;;;;;;;13.71;78.92;100410.06;5050445;28;20057;-77
2022/03/09 09:07:18;;;;;;;12.00;9.77;;;;;;;13.64;78.86;100370.28;5052766;28;20053;-77
2022/03/09 09:09:45;;;;;;;13.40;9.73;;;;;;;13.81;78.91;100393.06;5052435;28;20076;-75
2022/03/09 09:12:12;;;;;;;9.67;8.80;;;;;;;13.99;78.62;100400.59;5049691;28;20045;-76
2022/03/09 09:14:39;;;;;;;8.98;8.48;;;;;;;14.02;78.55;100403.91;5051221;28;20084;-76
2022/03/09 09:17:07;;;;;;;10.20;8.93;;;;;;;14.13;78.30;100411.84;5052081;28;20049;-76
2022/03/09 09:19:58;;;;;;;9.30;8.43;;;;;;;14.31;78.10;100401.69;5069726;28;20116;-75
2022/03/09 09:22:25;;;;;;;11.77;11.07;;;;;;;13.91;78.14;100353.56;5066356;28;20050;-77
2022/03/09 09:24:55;;;;;;;9.30;8.70;;;;;;;13.67;77.50;100316.38;5052260;28;20045;-77
2022/03/09 09:27:25;;;;;;;9.50;8.90;;;;;;;14.21;77.39;100446.81;5050878;28;20084;-76
2022/03/09 09:30:15;;;;;;;8.55;7.72;;;;;;;14.28;77.59;100395.88;5047711;28;20043;-77
2022/03/09 09:32:45;;;;;;;10.35;9.45;;;;;;;13.64;77.24;100303.81;5046785;28;20081;-76
2022/03/09 09:35:14;;;;;;;12.60;11.57;;;;;;;13.70;77.50;100330.63;5050651;28;20051;-76
2022/03/09 09:37:42;;;;;;;12.23;9.30;;;;;;;14.04;77.48;100353.91;5051069;28;20092;-77
2022/03/09 09:40:10;;;;;;;10.30;8.23;;;;;;;14.45;77.08;100419.41;5046793;28;20441;-77
2022/03/09 09:42:37;;;;;;;9.63;8.73;;;;;;;14.55;77.04;100431.63;5044419;28;20053;-77
2022/03/09 09:45:19;;;;;;;8.90;8.40;;;;;;;14.58;76.94;100422.59;5049497;28;20504;-76
2022/03/09 09:48:00;;;;;;;9.80;8.90;;;;;;;14.54;76.67;100422.38;5050243;28;20148;-76
2022/03/09 09:50:33;;;;;;;11.20;9.20;;;;;;;14.68;76.69;100422.38;5029085;28;20049;-77
2022/03/09 09:53:04;;;;;;;14.85;9.27;;;;;;;14.59;76.54;100418.63;5048059;28;20068;-77
2022/03/09 09:55:32;;;;;;;12.77;6.43;;;;;;;14.51;76.25;100427.78;5028679;28;20270;-76
2022/03/09 09:57:59;;;;;;;4.85;1.33;;;;;;;14.48;76.53;100437.63;5033106;28;20084;-77
2022/03/09 10:00:26;;;;;;;5.07;1.88;;;;;;;14.25;76.36;100414.16;5050835;28;20122;-78
2022/03/09 10:03:00;;;;;;;3.47;1.52;;;;;;;14.28;76.47;100413.53;5044409;28;20049;-76
2022/03/09 10:05:27;;;;;;;7.38;1.70;;;;;;;14.36;76.35;100389.56;5046795;28;20050;-75
2022/03/09 10:08:04;;;;;;;5.35;2.40;;;;;;;14.51;76.14;100406.13;5051691;28;20118;-77
2022/03/09 10:10:33;;;;;;;4.38;2.55;;;;;;;14.89;75.98;100395.50;5050923;28;20490;-77
2022/03/09 10:13:10;;;;;;;5.20;1.20;;;;;;;15.16;75.47;100399.44;5051458;28;20150;-76
2022/03/09 10:15:37;;;;;;;4.53;1.55;;;;;;;14.85;75.00;100340.25;5049304;28;20102;-77
2022/03/09 10:18:21;;;;;;;2.40;1.20;;;;;;;15.26;75.11;100404.84;5051350;28;20127;-77
2022/03/09 10:20:50;;;;;;;4.30;1.20;;;;;;;15.39;74.80;100406.81;5050393;28;20085;-76
2022/03/09 10:23:20;;;;;;;4.72;2.20;;;;;;;15.19;74.25;100395.19;5051279;28;20565;-77
2022/03/09 10:25:48;;;;;;;10.05;1.77;;;;;;;15.29;74.70;100409.84;5051737;28;20060;-76
2022/03/09 10:28:15;;;;;;;9.20;8.32;;;;;;;15.29;74.19;100426.72;5050347;28;20081;-77
2022/03/09 10:30:42;;;;;;;8.70;8.00;;;;;;;15.14;73.45;100401.72;5049556;28;20059;-76
2022/03/09 10:33:14;;;;;;;9.38;8.40;;;;;;;15.36;73.95;100409.41;5040025;28;20428;-77
2022/03/09 10:35:44;;;;;;;9.77;8.68;;;;;;;15.10;73.90;100378.19;5050950;28;20041;-77
2022/03/09 10:38:19;;;;;;;11.95;8.70;;;;;;;15.36;73.59;100410.25;5049997;28;20106;-78
2022/03/09 10:40:52;;;;;;;9.68;8.82;;;;;;;15.28;73.69;100419.44;5050572;28;20053;-76
2022/03/09 10:43:24;;;;;;;8.82;8.32;;;;;;;15.27;73.77;100414.94;5050239;28;20052;-77
2022/03/09 10:46:07;;;;;;;7.88;7.47;;;;;;;14.83;73.12;100340.53;5048352;28;20072;-76
2022/03/09 10:48:54;;;;;;;12.18;8.18;;;;;;;15.27;73.19;100403.69;5048933;28;20067;-77
2022/03/09 10:51:29;;;;;;;6.07;1.70;;;;;;;15.24;72.89;100406.31;5044538;28;20075;-77
2022/03/09 10:53:58;;;;;;;16.77;10.65;;;;;;;15.12;72.54;100389.97;5046644;28;20048;-77
2022/03/09 10:56:25;;;;;;;11.03;8.73;;;;;;;15.15;72.81;100397.78;5036299;28;20045;-76
2022/03/09 10:58:52;;;;;;;12.27;10.00;;;;;;;15.27;72.99;100417.75;5049625;28;20784;-77
2022/03/09 11:01:21;;;;;;;10.63;9.35;;;;;;;15.32;73.23;100400.78;5048743;28;20084;-75
2022/03/09 11:03:48;;;;;;;12.02;9.80;;;;;;;15.19;73.32;100398.81;5049242;28;20139;-78
2022/03/09 11:06:15;;;;;;;10.45;9.63;;;;;;;15.23;73.58;100394.22;5049180;28;20057;-78
2022/03/09 11:08:42;;;;;;;11.20;10.48;;;;;;;15.29;73.30;100420.28;5045584;28;20057;-77
2022/03/09 11:11:09;;;;;;;9.20;8.57;;;;;;;15.13;73.70;100414.13;5050648;28;20052;-78
2022/03/09 11:13:37;;;;;;;11.70;10.43;;;;;;;15.17;73.46;100413.19;5050250;28;20106;-76
2022/03/09 11:16:07;;;;;;;10.70;9.65;;;;;;;15.30;73.70;100405.06;5034387;28;20119;-77
2022/03/09 11:18:35;;;;;;;11.57;8.30;;;;;;;15.35;73.68;100386.09;5051619;28;20519;-77
2022/03/09 11:21:08;;;;;;;12.93;8.48;;;;;;;15.18;73.00;100374.66;5051456;28;20145;-78
2022/03/09 11:23:39;;;;;;;14.88;10.18;;;;;;;15.23;72.89;100394.22;5050918;28;20041;-76
2022/03/09 11:26:23;;;;;;;14.50;10.38;;;;;;;15.24;72.69;100415.56;5050412;28;20558;-78